sensor_id;sensor_type;location;lat;lon;timestamp;P1;durP1;ratioP1;P2;durP2;ratioP2
58360;SDS011;44164;44.954;10.068;2023-04-24T00:00:56;3.28;;;1.65;;
58360;SDS011;44164;44.954;10.068;2023-04-24T00:03:23;3.30;;;1.77;;
58360;SDS011;44164;44.954;10.068;2023-04-24T00:05:49;3.30;;;1.60;;
58360;SDS011;44164;44.954;10.068;2023-04-24T00:08:16;4.13;;;1.70;;
58360;SDS011;44164;44.954;10.068;2023-04-24T00:10:43;2.63;;;1.50;;
58360;SDS011;44164;44.954;10.068;2023-04-24T00:13:09;3.67;;;1.83;;
58360;SDS011;44164;44.954;10.068;2023-04-24T00:15:35;2.60;;;1.52;;
58360;SDS011;44164;44.954;10.068;2023-04-24T00:18:01;2.90;;;1.52;;
58360;SDS011;44164;44.954;10.068;2023-04-24T00:20:28;3.13;;;1.90;;
58360;SDS011;44164;44.954;10.068;2023-04-24T00:22:55;3.17;;;1.52;;
58360;SDS011;44164;44.954;10.068;2023-04-24T00:25:21;4.30;;;1.60;;
58360;SDS011;44164;44.954;10.068;2023-04-24T00:27:47;2.75;;;1.50;;
58360;SDS011;44164;44.954;10.068;2023-04-24T00:30:13;3.17;;;1.15;;
58360;SDS011;44164;44.954;10.068;2023-04-24T00:32:40;2.65;;;1.40;;
58360;SDS011;44164;44.954;10.068;2023-04-24T00:35:06;2.30;;;1.35;;
58360;SDS011;44164;44.954;10.068;2023-04-24T00:37:32;2.47;;;1.20;;
58360;SDS011;44164;44.954;10.068;2023-04-24T00:39:58;2.13;;;1.27;;
58360;SDS011;44164;44.954;10.068;2023-04-24T00:42:24;2.40;;;1.20;;
58360;SDS011;44164;44.954;10.068;2023-04-24T00:44:51;2.25;;;1.23;;
58360;SDS011;44164;44.954;10.068;2023-04-24T00:47:17;3.40;;;1.33;;
58360;SDS011;44164;44.954;10.068;2023-04-24T00:49:44;3.40;;;1.77;;
58360;SDS011;44164;44.954;10.068;2023-04-24T00:52:10;2.40;;;1.30;;
58360;SDS011;44164;44.954;10.068;2023-04-24T00:54:38;2.37;;;1.33;;
58360;SDS011;44164;44.954;10.068;2023-04-24T00:57:04;3.38;;;1.50;;
58360;SDS011;44164;44.954;10.068;2023-04-24T00:59:30;3.00;;;1.58;;
58360;SDS011;44164;44.954;10.068;2023-04-24T01:01:57;2.50;;;1.40;;
58360;SDS011;44164;44.954;10.068;2023-04-24T01:04:24;2.67;;;1.65;;
58360;SDS011;44164;44.954;10.068;2023-04-24T01:06:50;2.38;;;1.50;;
58360;SDS011;44164;44.954;10.068;2023-04-24T01:09:16;3.28;;;1.48;;
58360;SDS011;44164;44.954;10.068;2023-04-24T01:11:43;2.80;;;1.15;;
58360;SDS011;44164;44.954;10.068;2023-04-24T01:14:11;3.38;;;1.55;;
58360;SDS011;44164;44.954;10.068;2023-04-24T01:16:37;2.50;;;1.50;;
58360;SDS011;44164;44.954;10.068;2023-04-24T01:19:04;4.03;;;1.60;;
58360;SDS011;44164;44.954;10.068;2023-04-24T01:21:33;2.13;;;1.58;;
58360;SDS011;44164;44.954;10.068;2023-04-24T01:24:04;3.15;;;1.23;;
58360;SDS011;44164;44.954;10.068;2023-04-24T01:26:31;2.35;;;1.45;;
58360;SDS011;44164;44.954;10.068;2023-04-24T01:28:57;2.17;;;1.38;;
58360;SDS011;44164;44.954;10.068;2023-04-24T01:31:24;3.20;;;1.38;;
58360;SDS011;44164;44.954;10.068;2023-04-24T01:33:50;1.83;;;1.10;;
58360;SDS011;44164;44.954;10.068;2023-04-24T01:36:16;2.47;;;1.50;;
58360;SDS011;44164;44.954;10.068;2023-04-24T01:38:43;2.03;;;1.30;;
58360;SDS011;44164;44.954;10.068;2023-04-24T01:41:10;2.17;;;1.23;;
58360;SDS011;44164;44.954;10.068;2023-04-24T01:43:36;2.10;;;1.20;;
58360;SDS011;44164;44.954;10.068;2023-04-24T01:46:02;2.78;;;1.45;;
58360;SDS011;44164;44.954;10.068;2023-04-24T01:48:28;2.17;;;1.30;;
58360;SDS011;44164;44.954;10.068;2023-04-24T01:50:55;3.03;;;1.50;;
58360;SDS011;44164;44.954;10.068;2023-04-24T01:53:22;2.22;;;1.23;;
58360;SDS011;44164;44.954;10.068;2023-04-24T01:55:48;3.33;;;1.30;;
58360;SDS011;44164;44.954;10.068;2023-04-24T01:58:15;2.63;;;1.70;;
58360;SDS011;44164;44.954;10.068;2023-04-24T02:00:41;2.25;;;1.55;;
58360;SDS011;44164;44.954;10.068;2023-04-24T02:03:07;2.00;;;1.30;;
58360;SDS011;44164;44.954;10.068;2023-04-24T02:05:33;1.85;;;1.23;;
58360;SDS011;44164;44.954;10.068;2023-04-24T02:08:02;2.40;;;1.38;;
58360;SDS011;44164;44.954;10.068;2023-04-24T02:10:28;2.05;;;1.20;;
58360;SDS011;44164;44.954;10.068;2023-04-24T02:12:54;2.40;;;1.30;;
58360;SDS011;44164;44.954;10.068;2023-04-24T02:15:23;2.63;;;1.48;;
58360;SDS011;44164;44.954;10.068;2023-04-24T02:17:49;2.80;;;1.40;;
58360;SDS011;44164;44.954;10.068;2023-04-24T02:20:15;2.22;;;1.35;;
58360;SDS011;44164;44.954;10.068;2023-04-24T02:22:43;2.20;;;1.65;;
58360;SDS011;44164;44.954;10.068;2023-04-24T02:25:09;2.00;;;1.38;;
58360;SDS011;44164;44.954;10.068;2023-04-24T02:27:35;2.38;;;1.20;;
58360;SDS011;44164;44.954;10.068;2023-04-24T02:30:04;2.63;;;1.67;;
58360;SDS011;44164;44.954;10.068;2023-04-24T02:32:31;2.53;;;1.27;;
58360;SDS011;44164;44.954;10.068;2023-04-24T02:34:57;2.17;;;1.40;;
58360;SDS011;44164;44.954;10.068;2023-04-24T02:37:23;2.15;;;1.10;;
58360;SDS011;44164;44.954;10.068;2023-04-24T02:39:49;2.47;;;1.77;;
58360;SDS011;44164;44.954;10.068;2023-04-24T02:42:16;2.38;;;1.70;;
58360;SDS011;44164;44.954;10.068;2023-04-24T02:44:42;2.53;;;1.40;;
58360;SDS011;44164;44.954;10.068;2023-04-24T02:47:08;2.70;;;1.58;;
58360;SDS011;44164;44.954;10.068;2023-04-24T02:49:34;2.80;;;1.70;;
58360;SDS011;44164;44.954;10.068;2023-04-24T02:52:00;2.47;;;1.50;;
58360;SDS011;44164;44.954;10.068;2023-04-24T02:54:26;1.92;;;1.30;;
58360;SDS011;44164;44.954;10.068;2023-04-24T02:56:52;2.25;;;1.52;;
58360;SDS011;44164;44.954;10.068;2023-04-24T02:59:18;3.80;;;1.85;;
58360;SDS011;44164;44.954;10.068;2023-04-24T03:01:44;2.28;;;1.40;;
58360;SDS011;44164;44.954;10.068;2023-04-24T03:04:11;2.10;;;1.50;;
58360;SDS011;44164;44.954;10.068;2023-04-24T03:06:37;3.05;;;1.20;;
58360;SDS011;44164;44.954;10.068;2023-04-24T03:09:03;2.40;;;1.42;;
58360;SDS011;44164;44.954;10.068;2023-04-24T03:11:29;2.38;;;1.30;;
58360;SDS011;44164;44.954;10.068;2023-04-24T03:13:55;2.20;;;1.40;;
58360;SDS011;44164;44.954;10.068;2023-04-24T03:16:21;3.72;;;1.60;;
58360;SDS011;44164;44.954;10.068;2023-04-24T03:18:47;2.50;;;1.33;;
58360;SDS011;44164;44.954;10.068;2023-04-24T03:21:14;1.98;;;1.30;;
58360;SDS011;44164;44.954;10.068;2023-04-24T03:23:41;2.33;;;1.60;;
58360;SDS011;44164;44.954;10.068;2023-04-24T03:26:08;1.80;;;1.30;;
58360;SDS011;44164;44.954;10.068;2023-04-24T03:28:37;2.92;;;1.67;;
58360;SDS011;44164;44.954;10.068;2023-04-24T03:31:04;3.00;;;1.30;;
58360;SDS011;44164;44.954;10.068;2023-04-24T03:33:34;2.95;;;1.60;;
58360;SDS011;44164;44.954;10.068;2023-04-24T03:36:01;2.53;;;1.50;;
58360;SDS011;44164;44.954;10.068;2023-04-24T03:38:34;4.60;;;1.65;;
58360;SDS011;44164;44.954;10.068;2023-04-24T03:41:26;2.30;;;1.60;;
58360;SDS011;44164;44.954;10.068;2023-04-24T03:44:03;2.40;;;1.40;;
58360;SDS011;44164;44.954;10.068;2023-04-24T03:46:30;3.22;;;1.42;;
58360;SDS011;44164;44.954;10.068;2023-04-24T03:48:58;2.17;;;1.63;;
58360;SDS011;44164;44.954;10.068;2023-04-24T03:51:29;2.03;;;1.30;;
58360;SDS011;44164;44.954;10.068;2023-04-24T03:54:02;2.05;;;1.45;;
58360;SDS011;44164;44.954;10.068;2023-04-24T03:56:31;3.72;;;1.60;;
58360;SDS011;44164;44.954;10.068;2023-04-24T03:58:57;4.72;;;2.15;;
58360;SDS011;44164;44.954;10.068;2023-04-24T04:01:23;2.50;;;1.60;;
58360;SDS011;44164;44.954;10.068;2023-04-24T04:04:04;2.40;;;1.60;;
58360;SDS011;44164;44.954;10.068;2023-04-24T04:06:30;4.20;;;1.45;;
58360;SDS011;44164;44.954;10.068;2023-04-24T04:08:58;2.47;;;1.38;;
58360;SDS011;44164;44.954;10.068;2023-04-24T04:11:24;2.72;;;1.70;;
58360;SDS011;44164;44.954;10.068;2023-04-24T04:13:50;2.33;;;1.52;;
58360;SDS011;44164;44.954;10.068;2023-04-24T04:16:20;3.42;;;1.58;;
58360;SDS011;44164;44.954;10.068;2023-04-24T04:18:48;2.20;;;1.35;;
58360;SDS011;44164;44.954;10.068;2023-04-24T04:21:15;2.20;;;1.38;;
58360;SDS011;44164;44.954;10.068;2023-04-24T04:23:41;2.55;;;1.77;;
58360;SDS011;44164;44.954;10.068;2023-04-24T04:26:14;2.85;;;1.70;;
58360;SDS011;44164;44.954;10.068;2023-04-24T04:28:57;4.43;;;1.90;;
58360;SDS011;44164;44.954;10.068;2023-04-24T04:31:23;2.38;;;1.63;;
58360;SDS011;44164;44.954;10.068;2023-04-24T04:33:49;4.05;;;1.90;;
58360;SDS011;44164;44.954;10.068;2023-04-24T04:36:16;2.97;;;1.45;;
58360;SDS011;44164;44.954;10.068;2023-04-24T04:38:49;5.75;;;1.33;;
58360;SDS011;44164;44.954;10.068;2023-04-24T04:41:39;2.78;;;1.70;;
58360;SDS011;44164;44.954;10.068;2023-04-24T04:44:07;3.72;;;1.60;;
58360;SDS011;44164;44.954;10.068;2023-04-24T04:46:35;2.33;;;1.40;;
58360;SDS011;44164;44.954;10.068;2023-04-24T04:49:10;2.22;;;1.42;;
58360;SDS011;44164;44.954;10.068;2023-04-24T04:51:37;2.03;;;1.13;;
58360;SDS011;44164;44.954;10.068;2023-04-24T04:54:04;2.42;;;1.50;;
58360;SDS011;44164;44.954;10.068;2023-04-24T04:56:31;2.30;;;1.27;;
58360;SDS011;44164;44.954;10.068;2023-04-24T04:58:59;4.60;;;1.50;;
58360;SDS011;44164;44.954;10.068;2023-04-24T05:01:28;2.92;;;1.52;;
58360;SDS011;44164;44.954;10.068;2023-04-24T05:03:55;3.88;;;1.50;;
58360;SDS011;44164;44.954;10.068;2023-04-24T05:06:21;2.30;;;1.33;;
58360;SDS011;44164;44.954;10.068;2023-04-24T05:08:47;2.35;;;1.38;;
58360;SDS011;44164;44.954;10.068;2023-04-24T05:11:34;2.35;;;1.40;;
58360;SDS011;44164;44.954;10.068;2023-04-24T05:14:02;1.98;;;1.35;;
58360;SDS011;44164;44.954;10.068;2023-04-24T05:16:34;2.83;;;1.60;;
58360;SDS011;44164;44.954;10.068;2023-04-24T05:19:03;3.53;;;1.45;;
58360;SDS011;44164;44.954;10.068;2023-04-24T05:21:34;2.47;;;1.80;;
58360;SDS011;44164;44.954;10.068;2023-04-24T05:24:00;3.38;;;1.50;;
58360;SDS011;44164;44.954;10.068;2023-04-24T05:26:45;2.83;;;1.45;;
58360;SDS011;44164;44.954;10.068;2023-04-24T05:29:13;3.17;;;1.40;;
58360;SDS011;44164;44.954;10.068;2023-04-24T05:31:39;4.72;;;1.67;;
58360;SDS011;44164;44.954;10.068;2023-04-24T05:34:05;2.50;;;1.50;;
58360;SDS011;44164;44.954;10.068;2023-04-24T05:36:32;4.93;;;1.45;;
58360;SDS011;44164;44.954;10.068;2023-04-24T05:38:58;4.18;;;1.58;;
58360;SDS011;44164;44.954;10.068;2023-04-24T05:41:25;2.67;;;1.48;;
58360;SDS011;44164;44.954;10.068;2023-04-24T05:43:51;4.85;;;1.80;;
58360;SDS011;44164;44.954;10.068;2023-04-24T05:46:17;3.92;;;1.70;;
58360;SDS011;44164;44.954;10.068;2023-04-24T05:48:44;3.97;;;2.00;;
58360;SDS011;44164;44.954;10.068;2023-04-24T05:51:11;4.85;;;1.50;;
58360;SDS011;44164;44.954;10.068;2023-04-24T05:53:37;4.85;;;1.88;;
58360;SDS011;44164;44.954;10.068;2023-04-24T05:56:03;2.47;;;1.70;;
58360;SDS011;44164;44.954;10.068;2023-04-24T05:58:30;3.30;;;1.85;;
58360;SDS011;44164;44.954;10.068;2023-04-24T06:00:57;4.22;;;1.63;;
58360;SDS011;44164;44.954;10.068;2023-04-24T06:03:24;4.80;;;2.08;;
58360;SDS011;44164;44.954;10.068;2023-04-24T06:05:50;3.47;;;1.75;;
58360;SDS011;44164;44.954;10.068;2023-04-24T06:08:17;6.63;;;1.70;;
58360;SDS011;44164;44.954;10.068;2023-04-24T06:10:44;5.80;;;2.38;;
58360;SDS011;44164;44.954;10.068;2023-04-24T06:13:11;2.72;;;1.70;;
58360;SDS011;44164;44.954;10.068;2023-04-24T06:15:52;3.35;;;1.83;;
58360;SDS011;44164;44.954;10.068;2023-04-24T06:18:27;5.28;;;2.03;;
58360;SDS011;44164;44.954;10.068;2023-04-24T06:20:53;3.17;;;1.80;;
58360;SDS011;44164;44.954;10.068;2023-04-24T06:23:20;4.05;;;1.92;;
58360;SDS011;44164;44.954;10.068;2023-04-24T06:25:47;3.72;;;1.90;;
58360;SDS011;44164;44.954;10.068;2023-04-24T06:28:13;3.17;;;2.10;;
58360;SDS011;44164;44.954;10.068;2023-04-24T06:30:39;2.92;;;1.80;;
58360;SDS011;44164;44.954;10.068;2023-04-24T06:33:06;4.78;;;2.20;;
58360;SDS011;44164;44.954;10.068;2023-04-24T06:35:32;4.93;;;2.00;;
58360;SDS011;44164;44.954;10.068;2023-04-24T06:37:58;4.57;;;2.00;;
58360;SDS011;44164;44.954;10.068;2023-04-24T06:40:24;4.22;;;2.15;;
58360;SDS011;44164;44.954;10.068;2023-04-24T06:42:51;3.65;;;2.28;;
58360;SDS011;44164;44.954;10.068;2023-04-24T06:45:17;4.32;;;2.20;;
58360;SDS011;44164;44.954;10.068;2023-04-24T06:47:43;3.92;;;1.85;;
58360;SDS011;44164;44.954;10.068;2023-04-24T06:50:09;5.55;;;2.45;;
58360;SDS011;44164;44.954;10.068;2023-04-24T06:52:35;7.38;;;2.83;;
58360;SDS011;44164;44.954;10.068;2023-04-24T06:55:02;3.90;;;2.13;;
58360;SDS011;44164;44.954;10.068;2023-04-24T06:57:29;3.42;;;2.00;;
58360;SDS011;44164;44.954;10.068;2023-04-24T06:59:55;4.88;;;2.40;;
58360;SDS011;44164;44.954;10.068;2023-04-24T07:02:21;3.53;;;2.42;;
58360;SDS011;44164;44.954;10.068;2023-04-24T07:04:48;4.55;;;2.08;;
58360;SDS011;44164;44.954;10.068;2023-04-24T07:07:14;4.45;;;2.15;;
58360;SDS011;44164;44.954;10.068;2023-04-24T07:09:40;4.65;;;2.40;;
58360;SDS011;44164;44.954;10.068;2023-04-24T07:12:11;3.78;;;2.20;;
58360;SDS011;44164;44.954;10.068;2023-04-24T07:14:37;3.55;;;2.17;;
58360;SDS011;44164;44.954;10.068;2023-04-24T07:17:04;3.50;;;2.28;;
58360;SDS011;44164;44.954;10.068;2023-04-24T07:19:31;3.40;;;2.28;;
58360;SDS011;44164;44.954;10.068;2023-04-24T07:21:58;4.45;;;2.33;;
58360;SDS011;44164;44.954;10.068;2023-04-24T07:24:25;5.32;;;2.10;;
58360;SDS011;44164;44.954;10.068;2023-04-24T07:26:51;4.05;;;2.60;;
58360;SDS011;44164;44.954;10.068;2023-04-24T07:29:18;3.28;;;2.08;;
58360;SDS011;44164;44.954;10.068;2023-04-24T07:31:44;6.57;;;2.30;;
58360;SDS011;44164;44.954;10.068;2023-04-24T07:34:10;4.82;;;2.45;;
58360;SDS011;44164;44.954;10.068;2023-04-24T07:36:37;5.30;;;2.15;;
58360;SDS011;44164;44.954;10.068;2023-04-24T07:39:04;3.30;;;1.80;;
58360;SDS011;44164;44.954;10.068;2023-04-24T07:41:31;4.68;;;2.53;;
58360;SDS011;44164;44.954;10.068;2023-04-24T07:43:58;3.75;;;2.63;;
58360;SDS011;44164;44.954;10.068;2023-04-24T07:46:24;3.40;;;1.80;;
58360;SDS011;44164;44.954;10.068;2023-04-24T07:48:50;4.93;;;2.38;;
58360;SDS011;44164;44.954;10.068;2023-04-24T07:51:16;4.07;;;2.10;;
58360;SDS011;44164;44.954;10.068;2023-04-24T07:53:43;3.42;;;2.17;;
58360;SDS011;44164;44.954;10.068;2023-04-24T07:56:09;4.82;;;2.25;;
58360;SDS011;44164;44.954;10.068;2023-04-24T07:58:35;3.75;;;2.17;;
58360;SDS011;44164;44.954;10.068;2023-04-24T08:01:01;5.28;;;2.55;;
58360;SDS011;44164;44.954;10.068;2023-04-24T08:03:27;4.25;;;2.45;;
58360;SDS011;44164;44.954;10.068;2023-04-24T08:05:53;3.88;;;2.30;;
58360;SDS011;44164;44.954;10.068;2023-04-24T08:08:20;3.28;;;2.22;;
58360;SDS011;44164;44.954;10.068;2023-04-24T08:10:47;3.88;;;2.63;;
58360;SDS011;44164;44.954;10.068;2023-04-24T08:13:13;5.25;;;2.50;;
58360;SDS011;44164;44.954;10.068;2023-04-24T08:15:39;4.35;;;2.33;;
58360;SDS011;44164;44.954;10.068;2023-04-24T08:18:05;3.80;;;2.20;;
58360;SDS011;44164;44.954;10.068;2023-04-24T08:20:31;3.13;;;2.15;;
58360;SDS011;44164;44.954;10.068;2023-04-24T08:22:58;3.40;;;1.90;;
58360;SDS011;44164;44.954;10.068;2023-04-24T08:25:24;3.67;;;2.40;;
58360;SDS011;44164;44.954;10.068;2023-04-24T08:27:50;5.43;;;2.40;;
58360;SDS011;44164;44.954;10.068;2023-04-24T08:30:17;4.15;;;2.65;;
58360;SDS011;44164;44.954;10.068;2023-04-24T08:32:43;3.35;;;2.10;;
58360;SDS011;44164;44.954;10.068;2023-04-24T08:35:09;4.50;;;2.80;;
58360;SDS011;44164;44.954;10.068;2023-04-24T08:37:35;8.23;;;2.47;;
58360;SDS011;44164;44.954;10.068;2023-04-24T08:40:03;5.88;;;2.47;;
58360;SDS011;44164;44.954;10.068;2023-04-24T08:42:33;6.07;;;2.50;;
58360;SDS011;44164;44.954;10.068;2023-04-24T08:45:00;4.53;;;2.33;;
58360;SDS011;44164;44.954;10.068;2023-04-24T08:47:26;4.60;;;2.97;;
58360;SDS011;44164;44.954;10.068;2023-04-24T08:49:53;3.97;;;2.42;;
58360;SDS011;44164;44.954;10.068;2023-04-24T08:52:19;8.65;;;2.75;;
58360;SDS011;44164;44.954;10.068;2023-04-24T08:54:47;7.95;;;2.78;;
58360;SDS011;44164;44.954;10.068;2023-04-24T08:57:14;4.40;;;2.55;;
58360;SDS011;44164;44.954;10.068;2023-04-24T08:59:40;6.15;;;3.10;;
58360;SDS011;44164;44.954;10.068;2023-04-24T09:02:09;6.53;;;2.00;;
58360;SDS011;44164;44.954;10.068;2023-04-24T09:04:36;5.95;;;2.33;;
58360;SDS011;44164;44.954;10.068;2023-04-24T09:07:03;7.13;;;2.28;;
58360;SDS011;44164;44.954;10.068;2023-04-24T09:09:30;6.47;;;2.33;;
58360;SDS011;44164;44.954;10.068;2023-04-24T09:11:57;4.75;;;2.67;;
58360;SDS011;44164;44.954;10.068;2023-04-24T09:14:24;7.82;;;2.60;;
58360;SDS011;44164;44.954;10.068;2023-04-24T09:16:50;5.57;;;2.20;;
58360;SDS011;44164;44.954;10.068;2023-04-24T09:19:16;3.80;;;1.77;;
58360;SDS011;44164;44.954;10.068;2023-04-24T09:21:45;4.50;;;2.10;;
58360;SDS011;44164;44.954;10.068;2023-04-24T09:24:15;4.72;;;2.40;;
58360;SDS011;44164;44.954;10.068;2023-04-24T09:26:43;4.53;;;2.28;;
58360;SDS011;44164;44.954;10.068;2023-04-24T09:29:16;3.63;;;2.38;;
58360;SDS011;44164;44.954;10.068;2023-04-24T09:31:43;5.72;;;2.15;;
58360;SDS011;44164;44.954;10.068;2023-04-24T09:34:09;4.15;;;2.55;;
58360;SDS011;44164;44.954;10.068;2023-04-24T09:36:37;7.15;;;2.60;;
58360;SDS011;44164;44.954;10.068;2023-04-24T09:39:07;5.07;;;2.58;;
58360;SDS011;44164;44.954;10.068;2023-04-24T09:41:44;24.48;;;3.58;;
58360;SDS011;44164;44.954;10.068;2023-04-24T09:44:12;9.90;;;2.60;;
58360;SDS011;44164;44.954;10.068;2023-04-24T09:46:40;7.68;;;2.90;;
58360;SDS011;44164;44.954;10.068;2023-04-24T09:49:13;9.30;;;3.00;;
58360;SDS011;44164;44.954;10.068;2023-04-24T09:51:40;6.40;;;2.63;;
58360;SDS011;44164;44.954;10.068;2023-04-24T09:54:19;3.58;;;2.15;;
58360;SDS011;44164;44.954;10.068;2023-04-24T09:56:47;9.32;;;2.55;;
58360;SDS011;44164;44.954;10.068;2023-04-24T09:59:17;3.50;;;2.00;;
58360;SDS011;44164;44.954;10.068;2023-04-24T10:01:45;5.10;;;2.08;;
58360;SDS011;44164;44.954;10.068;2023-04-24T10:04:18;3.75;;;2.00;;
58360;SDS011;44164;44.954;10.068;2023-04-24T10:06:45;5.22;;;2.13;;
58360;SDS011;44164;44.954;10.068;2023-04-24T10:09:12;4.68;;;2.25;;
58360;SDS011;44164;44.954;10.068;2023-04-24T10:11:46;3.90;;;2.10;;
58360;SDS011;44164;44.954;10.068;2023-04-24T10:14:14;2.88;;;1.90;;
58360;SDS011;44164;44.954;10.068;2023-04-24T10:16:44;5.28;;;2.25;;
58360;SDS011;44164;44.954;10.068;2023-04-24T10:19:12;5.20;;;2.20;;
58360;SDS011;44164;44.954;10.068;2023-04-24T10:21:40;5.80;;;2.00;;
58360;SDS011;44164;44.954;10.068;2023-04-24T10:24:15;3.75;;;2.00;;
58360;SDS011;44164;44.954;10.068;2023-04-24T10:26:42;4.88;;;2.15;;
58360;SDS011;44164;44.954;10.068;2023-04-24T10:29:10;2.97;;;1.73;;
58360;SDS011;44164;44.954;10.068;2023-04-24T10:31:38;4.55;;;2.35;;
58360;SDS011;44164;44.954;10.068;2023-04-24T10:34:05;3.97;;;1.95;;
58360;SDS011;44164;44.954;10.068;2023-04-24T10:36:36;4.20;;;1.80;;
58360;SDS011;44164;44.954;10.068;2023-04-24T10:39:06;4.97;;;2.10;;
58360;SDS011;44164;44.954;10.068;2023-04-24T10:41:36;4.05;;;2.25;;
58360;SDS011;44164;44.954;10.068;2023-04-24T10:46:39;3.60;;;1.85;;
58360;SDS011;44164;44.954;10.068;2023-04-24T10:49:09;6.57;;;2.45;;
58360;SDS011;44164;44.954;10.068;2023-04-24T10:51:51;4.53;;;1.92;;
58360;SDS011;44164;44.954;10.068;2023-04-24T10:54:22;2.65;;;1.83;;
58360;SDS011;44164;44.954;10.068;2023-04-24T10:59:46;2.40;;;1.42;;
58360;SDS011;44164;44.954;10.068;2023-04-24T11:02:17;3.53;;;2.55;;
58360;SDS011;44164;44.954;10.068;2023-04-24T11:04:44;3.97;;;1.75;;
58360;SDS011;44164;44.954;10.068;2023-04-24T11:07:13;3.92;;;2.25;;
58360;SDS011;44164;44.954;10.068;2023-04-24T11:09:39;4.38;;;1.80;;
58360;SDS011;44164;44.954;10.068;2023-04-24T11:12:09;3.30;;;1.70;;
58360;SDS011;44164;44.954;10.068;2023-04-24T11:17:34;3.03;;;1.92;;
58360;SDS011;44164;44.954;10.068;2023-04-24T11:20:10;3.20;;;2.10;;
58360;SDS011;44164;44.954;10.068;2023-04-24T11:22:40;4.07;;;2.30;;
58360;SDS011;44164;44.954;10.068;2023-04-24T11:25:06;3.92;;;1.95;;
58360;SDS011;44164;44.954;10.068;2023-04-24T11:27:40;4.18;;;1.90;;
58360;SDS011;44164;44.954;10.068;2023-04-24T11:30:08;2.80;;;2.00;;
58360;SDS011;44164;44.954;10.068;2023-04-24T11:32:39;2.43;;;1.73;;
58360;SDS011;44164;44.954;10.068;2023-04-24T11:37:41;3.85;;;1.90;;
58360;SDS011;44164;44.954;10.068;2023-04-24T11:40:10;5.07;;;2.20;;
58360;SDS011;44164;44.954;10.068;2023-04-24T11:42:38;3.65;;;2.10;;
58360;SDS011;44164;44.954;10.068;2023-04-24T11:45:11;5.07;;;1.85;;
58360;SDS011;44164;44.954;10.068;2023-04-24T11:47:38;3.97;;;1.90;;
58360;SDS011;44164;44.954;10.068;2023-04-24T11:50:05;4.57;;;1.90;;
58360;SDS011;44164;44.954;10.068;2023-04-24T11:52:33;4.82;;;2.20;;
58360;SDS011;44164;44.954;10.068;2023-04-24T11:55:03;2.70;;;1.63;;
58360;SDS011;44164;44.954;10.068;2023-04-24T11:57:29;2.10;;;1.77;;
58360;SDS011;44164;44.954;10.068;2023-04-24T12:00:00;4.70;;;2.13;;
58360;SDS011;44164;44.954;10.068;2023-04-24T12:02:37;2.50;;;1.42;;
58360;SDS011;44164;44.954;10.068;2023-04-24T12:05:04;4.25;;;1.98;;
58360;SDS011;44164;44.954;10.068;2023-04-24T12:07:30;2.83;;;1.55;;
58360;SDS011;44164;44.954;10.068;2023-04-24T12:12:34;3.65;;;1.77;;
58360;SDS011;44164;44.954;10.068;2023-04-24T12:15:00;3.75;;;2.00;;
58360;SDS011;44164;44.954;10.068;2023-04-24T12:17:30;4.00;;;1.67;;
58360;SDS011;44164;44.954;10.068;2023-04-24T12:20:02;4.60;;;2.20;;
58360;SDS011;44164;44.954;10.068;2023-04-24T12:22:43;5.40;;;1.60;;
58360;SDS011;44164;44.954;10.068;2023-04-24T12:25:11;3.50;;;1.85;;
58360;SDS011;44164;44.954;10.068;2023-04-24T12:27:37;6.38;;;2.17;;
58360;SDS011;44164;44.954;10.068;2023-04-24T12:30:04;3.47;;;1.52;;
58360;SDS011;44164;44.954;10.068;2023-04-24T12:32:31;7.03;;;1.60;;
58360;SDS011;44164;44.954;10.068;2023-04-24T12:34:57;2.65;;;1.55;;
58360;SDS011;44164;44.954;10.068;2023-04-24T12:37:24;3.63;;;1.42;;
58360;SDS011;44164;44.954;10.068;2023-04-24T12:40:07;2.30;;;1.60;;
58360;SDS011;44164;44.954;10.068;2023-04-24T12:42:34;7.28;;;1.67;;
58360;SDS011;44164;44.954;10.068;2023-04-24T12:45:02;2.80;;;1.53;;
58360;SDS011;44164;44.954;10.068;2023-04-24T12:47:31;2.60;;;1.80;;
58360;SDS011;44164;44.954;10.068;2023-04-24T12:49:57;3.57;;;1.43;;
58360;SDS011;44164;44.954;10.068;2023-04-24T12:52:24;3.20;;;1.52;;
58360;SDS011;44164;44.954;10.068;2023-04-24T12:54:54;2.97;;;1.48;;
58360;SDS011;44164;44.954;10.068;2023-04-24T12:57:22;4.38;;;1.50;;
58360;SDS011;44164;44.954;10.068;2023-04-24T12:59:49;6.07;;;1.60;;
58360;SDS011;44164;44.954;10.068;2023-04-24T13:02:16;2.78;;;1.30;;
58360;SDS011;44164;44.954;10.068;2023-04-24T13:04:46;2.10;;;1.35;;
58360;SDS011;44164;44.954;10.068;2023-04-24T13:07:13;3.42;;;1.50;;
58360;SDS011;44164;44.954;10.068;2023-04-24T13:09:40;2.45;;;1.58;;
58360;SDS011;44164;44.954;10.068;2023-04-24T13:12:07;4.13;;;1.67;;
58360;SDS011;44164;44.954;10.068;2023-04-24T13:14:34;2.72;;;1.30;;
58360;SDS011;44164;44.954;10.068;2023-04-24T13:17:00;3.95;;;1.40;;
58360;SDS011;44164;44.954;10.068;2023-04-24T13:19:26;3.33;;;1.60;;
58360;SDS011;44164;44.954;10.068;2023-04-24T13:21:56;2.42;;;1.48;;
58360;SDS011;44164;44.954;10.068;2023-04-24T13:24:23;4.13;;;1.75;;
58360;SDS011;44164;44.954;10.068;2023-04-24T13:26:52;2.55;;;1.33;;
58360;SDS011;44164;44.954;10.068;2023-04-24T13:29:19;3.72;;;1.60;;
58360;SDS011;44164;44.954;10.068;2023-04-24T13:31:51;6.30;;;1.85;;
58360;SDS011;44164;44.954;10.068;2023-04-24T13:34:20;4.00;;;1.48;;
58360;SDS011;44164;44.954;10.068;2023-04-24T13:36:47;3.10;;;1.50;;
58360;SDS011;44164;44.954;10.068;2023-04-24T13:41:41;7.20;;;1.80;;
58360;SDS011;44164;44.954;10.068;2023-04-24T13:44:07;2.58;;;1.38;;
58360;SDS011;44164;44.954;10.068;2023-04-24T13:46:33;3.20;;;1.42;;
58360;SDS011;44164;44.954;10.068;2023-04-24T13:48:59;3.15;;;1.40;;
58360;SDS011;44164;44.954;10.068;2023-04-24T13:51:27;2.87;;;1.50;;
58360;SDS011;44164;44.954;10.068;2023-04-24T13:53:53;2.33;;;1.45;;
58360;SDS011;44164;44.954;10.068;2023-04-24T13:56:20;3.85;;;1.40;;
58360;SDS011;44164;44.954;10.068;2023-04-24T13:58:46;2.42;;;1.25;;
58360;SDS011;44164;44.954;10.068;2023-04-24T14:01:13;2.03;;;1.20;;
58360;SDS011;44164;44.954;10.068;2023-04-24T14:03:40;3.90;;;1.50;;
58360;SDS011;44164;44.954;10.068;2023-04-24T14:06:07;2.70;;;1.35;;
58360;SDS011;44164;44.954;10.068;2023-04-24T14:08:33;2.25;;;1.48;;
58360;SDS011;44164;44.954;10.068;2023-04-24T14:10:59;2.58;;;1.70;;
58360;SDS011;44164;44.954;10.068;2023-04-24T14:13:25;3.75;;;1.27;;
58360;SDS011;44164;44.954;10.068;2023-04-24T14:15:51;2.35;;;1.33;;
58360;SDS011;44164;44.954;10.068;2023-04-24T14:18:18;2.63;;;1.40;;
58360;SDS011;44164;44.954;10.068;2023-04-24T14:20:44;4.50;;;1.23;;
58360;SDS011;44164;44.954;10.068;2023-04-24T14:23:11;2.78;;;1.27;;
58360;SDS011;44164;44.954;10.068;2023-04-24T14:25:37;2.42;;;1.08;;
58360;SDS011;44164;44.954;10.068;2023-04-24T14:28:03;2.45;;;1.27;;
58360;SDS011;44164;44.954;10.068;2023-04-24T14:30:29;5.45;;;1.35;;
58360;SDS011;44164;44.954;10.068;2023-04-24T14:32:55;2.30;;;1.42;;
58360;SDS011;44164;44.954;10.068;2023-04-24T14:35:21;4.40;;;1.40;;
58360;SDS011;44164;44.954;10.068;2023-04-24T14:37:47;3.95;;;1.30;;
58360;SDS011;44164;44.954;10.068;2023-04-24T14:40:14;5.00;;;1.45;;
58360;SDS011;44164;44.954;10.068;2023-04-24T14:42:40;6.30;;;1.50;;
58360;SDS011;44164;44.954;10.068;2023-04-24T14:45:06;6.22;;;1.48;;
58360;SDS011;44164;44.954;10.068;2023-04-24T14:47:33;3.78;;;1.33;;
58360;SDS011;44164;44.954;10.068;2023-04-24T14:50:00;4.28;;;1.20;;
58360;SDS011;44164;44.954;10.068;2023-04-24T14:52:26;4.50;;;1.23;;